Time;durP1;ratioP1;P1;durP2;ratioP2;P2;SDS_P1;SDS_P2;PMS_P1;PMS_P2;Temp;Humidity;BMP_temperature;BMP_pressure;BME280_temperature;BME280_humidity;BME280_pressure;Samples;Min_cycle;Max_cycle;Signal;HPM_P1;HPM_P2
2022/05/25 00:00:59;;;;;;;3.35;2.50;;;20.70;34.80;;;;;;5034625;28;20423;-68
2022/05/25 00:03:25;;;;;;;2.80;2.50;;;20.60;34.80;;;;;;5033046;28;20033;-68
2022/05/25 00:05:51;;;;;;;3.55;2.60;;;20.60;34.90;;;;;;5034604;28;20025;-67
2022/05/25 00:08:17;;;;;;;3.28;2.65;;;20.60;34.90;;;;;;5034467;28;20029;-68
2022/05/25 00:10:43;;;;;;;3.35;2.70;;;20.60;34.90;;;;;;5033456;28;20025;-67
2022/05/25 00:13:09;;;;;;;3.83;2.50;;;20.60;34.90;;;;;;5034297;28;20375;-68
2022/05/25 00:15:35;;;;;;;3.20;2.33;;;20.60;35.00;;;;;;5034459;28;20029;-68
2022/05/25 00:18:03;;;;;;;3.10;2.40;;;20.50;35.00;;;;;;5032766;28;20097;-68
2022/05/25 00:20:29;;;;;;;4.43;2.88;;;20.50;35.00;;;;;;5034337;28;20025;-68
2022/05/25 00:22:56;;;;;;;3.70;2.70;;;20.50;35.00;;;;;;5034228;28;20369;-68
2022/05/25 00:25:25;;;;;;;3.50;2.60;;;20.50;35.10;;;;;;5034358;28;20083;-69
2022/05/25 00:27:50;;;;;;;3.72;2.78;;;20.50;35.10;;;;;;5033150;28;20371;-68
2022/05/25 00:30:17;;;;;;;3.22;2.50;;;20.50;35.20;;;;;;5033910;28;20030;-68
2022/05/25 00:32:43;;;;;;;3.88;2.80;;;20.40;35.20;;;;;;5034053;28;20112;-68
2022/05/25 00:35:12;;;;;;;3.83;2.88;;;20.50;35.20;;;;;;5034054;28;20021;-68
2022/05/25 00:37:39;;;;;;;3.55;2.50;;;20.40;35.20;;;;;;5034286;28;20471;-68
2022/05/25 00:40:06;;;;;;;3.75;2.85;;;20.40;35.30;;;;;;5033975;28;20026;-68
2022/05/25 00:42:35;;;;;;;4.10;2.70;;;20.40;35.30;;;;;;5032536;28;20083;-68
2022/05/25 00:45:03;;;;;;;3.63;2.78;;;20.40;35.40;;;;;;5033853;28;20033;-68
2022/05/25 00:47:30;;;;;;;3.30;2.65;;;20.30;35.40;;;;;;5032691;28;20025;-68
2022/05/25 00:49:56;;;;;;;3.63;2.55;;;20.30;35.50;;;;;;5032676;28;20029;-68
2022/05/25 00:52:22;;;;;;;3.53;2.70;;;20.30;35.40;;;;;;5033748;28;20306;-68
2022/05/25 00:54:52;;;;;;;3.08;2.70;;;20.30;35.50;;;;;;5033716;28;20029;-68
2022/05/25 00:57:36;;;;;;;4.30;2.83;;;20.30;35.50;;;;;;5033645;28;20032;-67
2022/05/25 01:00:24;;;;;;;4.25;2.60;;;20.30;36.40;;;;;;5032359;28;20026;-68
2022/05/25 01:03:04;;;;;;;4.43;2.55;;;20.30;35.80;;;;;;5033061;28;20544;-68
2022/05/25 01:05:34;;;;;;;3.40;2.55;;;20.20;35.60;;;;;;5033362;28;20018;-68
2022/05/25 01:08:20;;;;;;;3.83;2.60;;;20.20;35.60;;;;;;5033563;28;20026;-68
2022/05/25 01:11:21;;;;;;;3.30;2.50;;;20.20;35.80;;;;;;5033606;28;20025;-68
2022/05/25 01:14:08;;;;;;;3.47;2.70;;;20.20;35.80;;;;;;5033810;28;20037;-68
2022/05/25 01:17:02;;;;;;;3.10;2.53;;;20.20;35.70;;;;;;5036429;28;20026;-67
2022/05/25 01:19:43;;;;;;;3.47;2.83;;;20.20;36.00;;;;;;5036174;28;20045;-68
2022/05/25 01:22:46;;;;;;;3.75;2.53;;;20.20;35.80;;;;;;5037409;28;20056;-68
2022/05/25 01:25:39;;;;;;;3.58;2.70;;;20.20;36.00;;;;;;5037704;28;20079;-68
2022/05/25 01:28:47;;;;;;;2.85;2.28;;;20.10;35.90;;;;;;5037425;28;20475;-67
2022/05/25 01:31:21;;;;;;;2.70;2.25;;;20.10;36.00;;;;;;5037363;28;20091;-68
2022/05/25 01:33:57;;;;;;;4.00;2.63;;;20.10;35.80;;;;;;5037358;28;20033;-68
2022/05/25 01:36:53;;;;;;;4.07;2.38;;;20.10;35.90;;;;;;5036188;28;20076;-68
2022/05/25 01:39:24;;;;;;;3.70;2.45;;;20.10;36.00;;;;;;5037538;28;20052;-67
2022/05/25 01:42:17;;;;;;;3.55;2.45;;;20.10;36.00;;;;;;5037355;28;20460;-68
2022/05/25 01:44:49;;;;;;;3.28;2.55;;;20.00;36.10;;;;;;5037094;28;20436;-68
2022/05/25 01:47:15;;;;;;;3.78;2.50;;;20.00;36.00;;;;;;5035738;28;20037;-68
2022/05/25 01:50:01;;;;;;;3.97;2.78;;;20.00;36.00;;;;;;5035784;28;20056;-67
2022/05/25 01:52:32;;;;;;;3.00;2.60;;;20.00;36.20;;;;;;5036890;28;20467;-68
2022/05/25 01:55:24;;;;;;;2.88;2.40;;;20.00;36.10;;;;;;5037314;28;20033;-67
2022/05/25 01:57:55;;;;;;;3.25;2.47;;;20.00;36.30;;;;;;5036739;28;20025;-68
2022/05/25 02:00:36;;;;;;;3.13;2.42;;;20.00;36.20;;;;;;5037186;28;20448;-68
2022/05/25 02:06:16;;;;;;;4.25;2.38;;;19.90;36.20;;;;;;5037093;28;20040;-68
2022/05/25 02:09:19;;;;;;;2.97;2.40;;;19.90;36.30;;;;;;5037104;28;20033;-68
2022/05/25 02:11:48;;;;;;;3.28;2.53;;;19.90;36.40;;;;;;5035677;28;20072;-68
2022/05/25 02:14:22;;;;;;;2.83;2.28;;;19.90;36.20;;;;;;5035325;28;20033;-68
2022/05/25 02:17:26;;;;;;;2.42;2.20;;;19.90;36.30;;;;;;5036392;28;20064;-67
2022/05/25 02:20:13;;;;;;;2.97;2.50;;;19.90;36.60;;;;;;5035294;28;20026;-68
2022/05/25 02:22:50;;;;;;;2.90;2.53;;;19.90;36.40;;;;;;5036542;28;20034;-68
2022/05/25 02:25:24;;;;;;;4.07;2.78;;;19.90;36.40;;;;;;5034661;28;20053;-68
2022/05/25 02:28:10;;;;;;;3.03;2.47;;;19.90;36.40;;;;;;5036418;28;20379;-68
2022/05/25 02:30:41;;;;;;;2.80;2.33;;;19.90;36.60;;;;;;5036595;28;20057;-67
2022/05/25 02:33:14;;;;;;;3.90;2.60;;;19.90;36.40;;;;;;5036300;28;20120;-68
2022/05/25 02:35:42;;;;;;;2.97;2.28;;;19.90;36.50;;;;;;5036568;28;20041;-68
2022/05/25 02:38:09;;;;;;;2.90;2.35;;;20.00;36.50;;;;;;5035062;28;20061;-68
2022/05/25 02:40:38;;;;;;;2.50;2.30;;;20.00;36.50;;;;;;5034843;28;20112;-67
2022/05/25 02:43:06;;;;;;;3.08;2.47;;;20.00;36.60;;;;;;5036248;28;20029;-67
2022/05/25 02:45:32;;;;;;;3.10;2.40;;;20.00;36.60;;;;;;5034755;28;20364;-67
2022/05/25 02:47:58;;;;;;;2.80;2.50;;;20.00;37.20;;;;;;5035820;28;20068;-67
2022/05/25 02:50:23;;;;;;;3.35;2.63;;;20.00;36.60;;;;;;5036100;28;20048;-67
2022/05/25 02:52:49;;;;;;;3.20;2.60;;;20.00;36.70;;;;;;5036132;28;20029;-67
2022/05/25 02:55:15;;;;;;;3.38;2.65;;;20.00;36.70;;;;;;5035898;28;20030;-67
2022/05/25 02:57:41;;;;;;;3.90;2.30;;;20.00;36.70;;;;;;5035813;28;20021;-67
2022/05/25 03:00:08;;;;;;;3.03;2.67;;;20.00;36.70;;;;;;5036206;28;20472;-67
2022/05/25 03:02:35;;;;;;;2.63;2.30;;;20.00;36.70;;;;;;5035454;28;20034;-67
2022/05/25 03:05:01;;;;;;;4.25;2.92;;;20.10;36.80;;;;;;5035952;28;20029;-67
2022/05/25 03:07:27;;;;;;;3.45;2.60;;;20.10;36.90;;;;;;5035863;28;20583;-66
2022/05/25 03:09:53;;;;;;;4.07;2.78;;;20.10;36.90;;;;;;5035594;28;20129;-67
2022/05/25 03:12:18;;;;;;;3.88;2.70;;;20.10;36.90;;;;;;5035586;28;20037;-67
2022/05/25 03:14:44;;;;;;;3.38;2.60;;;20.10;36.90;;;;;;5035601;28;20104;-67
2022/05/25 03:17:15;;;;;;;3.33;2.67;;;20.10;37.00;;;;;;5034037;28;20033;-67
2022/05/25 03:19:50;;;;;;;4.70;2.80;;;20.10;37.00;;;;;;5035617;28;20028;-67
2022/05/25 03:22:17;;;;;;;4.15;2.90;;;20.10;37.00;;;;;;5034614;28;20353;-67
2022/05/25 03:24:42;;;;;;;3.40;2.75;;;20.10;37.00;;;;;;5033980;28;20028;-67
2022/05/25 03:27:08;;;;;;;3.42;2.70;;;20.10;37.00;;;;;;5035843;28;20050;-67
2022/05/25 03:29:34;;;;;;;3.58;2.70;;;20.10;37.00;;;;;;5035008;28;20052;-68
2022/05/25 03:32:00;;;;;;;4.03;2.65;;;20.20;37.10;;;;;;5035278;28;20044;-67
2022/05/25 03:34:26;;;;;;;4.13;2.78;;;20.20;37.10;;;;;;5035439;28;20444;-68
2022/05/25 03:36:56;;;;;;;4.22;2.60;;;20.20;37.10;;;;;;5034471;28;20032;-68
2022/05/25 03:39:22;;;;;;;4.28;3.00;;;20.20;37.10;;;;;;5035125;28;20033;-67
2022/05/25 03:41:56;;;;;;;3.95;2.72;;;20.20;37.10;;;;;;5034984;28;20099;-67
2022/05/25 03:44:23;;;;;;;3.90;2.80;;;20.20;37.20;;;;;;5034080;28;20072;-67
2022/05/25 03:46:52;;;;;;;3.60;2.70;;;20.20;37.20;;;;;;5033538;28;20124;-67
2022/05/25 03:49:19;;;;;;;3.97;2.95;;;20.20;37.20;;;;;;5034687;28;20498;-68
2022/05/25 03:51:45;;;;;;;3.83;2.88;;;20.20;37.20;;;;;;5034926;28;20025;-68
2022/05/25 03:54:11;;;;;;;4.20;3.00;;;20.20;37.30;;;;;;5033270;28;20075;-69
2022/05/25 03:56:38;;;;;;;4.00;2.55;;;20.20;37.30;;;;;;5034511;28;20377;-68
2022/05/25 03:59:04;;;;;;;3.80;2.60;;;20.20;37.40;;;;;;5034714;28;20086;-68
2022/05/25 04:01:33;;;;;;;5.25;3.03;;;20.20;37.40;;;;;;5034662;28;20376;-68
2022/05/25 04:03:59;;;;;;;4.30;2.90;;;20.20;37.40;;;;;;5033593;28;20033;-68
2022/05/25 04:06:25;;;;;;;5.45;3.15;;;20.20;37.50;;;;;;5034547;28;20434;-68
2022/05/25 04:08:51;;;;;;;4.05;3.13;;;20.20;37.50;;;;;;5033165;28;20030;-68
2022/05/25 04:11:17;;;;;;;5.40;3.35;;;20.20;37.60;;;;;;5034244;28;20041;-68
2022/05/25 04:13:43;;;;;;;3.92;3.00;;;20.20;37.60;;;;;;5032865;28;20128;-68
2022/05/25 04:16:08;;;;;;;4.60;2.95;;;20.20;37.70;;;;;;5034545;28;20049;-68
2022/05/25 04:18:34;;;;;;;4.25;3.15;;;20.20;37.70;;;;;;5034595;28;20029;-68
2022/05/25 04:21:00;;;;;;;3.78;2.90;;;20.20;37.80;;;;;;5034416;28;20040;-68
2022/05/25 04:23:27;;;;;;;4.95;3.20;;;20.20;37.80;;;;;;5033198;28;20029;-68
2022/05/25 04:25:54;;;;;;;4.85;3.42;;;20.20;37.80;;;;;;5034114;28;20054;-68
2022/05/25 04:28:20;;;;;;;3.92;3.13;;;20.30;37.90;;;;;;5033993;28;20104;-68
2022/05/25 04:30:46;;;;;;;5.72;3.08;;;20.30;37.90;;;;;;5032752;28;20072;-68
2022/05/25 04:33:12;;;;;;;3.97;2.88;;;20.30;37.90;;;;;;5034134;28;20041;-68
2022/05/25 04:35:38;;;;;;;4.43;3.10;;;20.30;38.00;;;;;;5033891;28;20025;-68
2022/05/25 04:38:06;;;;;;;4.95;3.15;;;20.30;38.00;;;;;;5033799;28;20026;-68
2022/05/25 04:40:36;;;;;;;4.10;3.00;;;20.40;38.10;;;;;;5033620;28;20049;-68
2022/05/25 04:43:10;;;;;;;4.85;3.20;;;20.40;38.10;;;;;;5032882;28;20033;-68
2022/05/25 04:45:38;;;;;;;4.10;2.88;;;20.40;38.10;;;;;;5034227;28;20409;-68
2022/05/25 04:48:04;;;;;;;3.88;3.05;;;20.40;38.10;;;;;;5033775;28;20491;-68
2022/05/25 04:50:35;;;;;;;4.55;3.17;;;20.40;38.20;;;;;;5033550;28;20033;-68
2022/05/25 04:53:03;;;;;;;4.63;3.10;;;20.40;38.20;;;;;;5032352;28;20040;-67
2022/05/25 04:58:25;;;;;;;5.05;3.47;;;20.40;38.20;;;;;;5029076;28;20108;-67
2022/05/25 05:00:51;;;;;;;5.90;3.00;;;20.50;38.40;;;;;;5025122;28;20499;-68
2022/05/25 05:03:18;;;;;;;4.45;2.80;;;20.50;38.30;;;;;;5013523;28;20038;-68
2022/05/25 05:05:44;;;;;;;6.00;3.50;;;20.50;38.30;;;;;;5013892;28;20026;-68
2022/05/25 05:08:10;;;;;;;4.70;3.30;;;20.50;38.30;;;;;;5030028;28;20018;-68
2022/05/25 05:10:37;;;;;;;3.92;2.75;;;20.60;38.40;;;;;;5033290;28;20036;-69
2022/05/25 05:13:04;;;;;;;4.68;3.00;;;20.60;38.50;;;;;;5018967;28;20049;-69
2022/05/25 05:15:39;;;;;;;3.92;2.60;;;20.60;38.60;;;;;;5018579;28;20028;-68
2022/05/25 05:18:06;;;;;;;5.00;2.90;;;20.60;38.70;;;;;;5019388;28;20026;-68
2022/05/25 05:20:31;;;;;;;4.13;2.90;;;20.70;38.70;;;;;;5030131;28;20116;-71
2022/05/25 05:22:58;;;;;;;3.05;2.75;;;20.70;38.70;;;;;;5031275;28;20108;-69
2022/05/25 05:25:23;;;;;;;4.43;2.70;;;20.70;38.60;;;;;;5032102;28;20030;-69
2022/05/25 05:27:49;;;;;;;4.40;2.88;;;20.70;38.70;;;;;;5032328;28;20555;-66
2022/05/25 05:30:18;;;;;;;4.40;2.97;;;20.70;38.70;;;;;;5031797;28;20029;-68
2022/05/25 05:32:44;;;;;;;4.40;3.00;;;20.70;38.70;;;;;;5032639;28;20464;-68
2022/05/25 05:35:10;;;;;;;4.30;2.97;;;20.70;38.70;;;;;;5032374;28;20026;-70
2022/05/25 05:37:51;;;;;;;3.55;2.38;;;20.80;38.80;;;;;;5033140;28;20468;-69
2022/05/25 05:40:19;;;;;;;4.07;2.80;;;20.80;38.90;;;;;;5032801;28;20068;-68
2022/05/25 05:42:47;;;;;;;3.08;2.35;;;20.80;38.80;;;;;;5032180;28;20037;-70
2022/05/25 05:45:24;;;;;;;3.22;2.58;;;20.80;38.80;;;;;;5031178;28;20033;-68
2022/05/25 05:47:57;;;;;;;4.15;2.42;;;20.90;38.90;;;;;;5033232;28;20033;-69
2022/05/25 05:50:24;;;;;;;4.05;2.72;;;20.80;38.80;;;;;;5031948;28;20391;-69
2022/05/25 05:52:51;;;;;;;3.00;2.28;;;20.90;38.80;;;;;;5031290;28;20041;-66
2022/05/25 05:55:18;;;;;;;3.42;2.60;;;20.80;38.80;;;;;;5032364;28;20021;-70
2022/05/25 05:57:44;;;;;;;3.53;2.60;;;20.90;38.80;;;;;;5032493;28;20033;-69
2022/05/25 06:00:12;;;;;;;3.33;2.60;;;20.90;38.80;;;;;;5033510;28;20112;-67
2022/05/25 06:02:37;;;;;;;4.00;2.63;;;20.90;38.80;;;;;;5034798;28;20041;-69
2022/05/25 06:05:04;;;;;;;3.80;2.50;;;21.00;38.80;;;;;;5036343;28;20036;-69
2022/05/25 06:07:29;;;;;;;3.42;2.65;;;20.90;38.70;;;;;;5035015;28;20071;-68
2022/05/25 06:09:56;;;;;;;3.22;2.50;;;21.00;38.80;;;;;;5036114;28;20021;-69
2022/05/25 06:12:22;;;;;;;3.00;2.47;;;21.00;38.80;;;;;;5036073;28;20494;-68
2022/05/25 06:14:48;;;;;;;3.08;2.20;;;21.10;38.80;;;;;;5036114;28;20383;-70
2022/05/25 06:19:59;;;;;;;2.30;2.10;;;21.10;38.70;;;;;;5035926;28;20041;-64
2022/05/25 06:22:26;;;;;;;2.20;2.00;;;21.10;38.60;;;;;;5034544;28;20029;-64
2022/05/25 06:24:52;;;;;;;2.92;2.20;;;21.10;38.60;;;;;;5034674;28;20033;-65
2022/05/25 06:27:19;;;;;;;2.50;1.90;;;21.20;38.60;;;;;;5034652;28;20054;-63
2022/05/25 06:29:49;;;;;;;2.30;1.83;;;21.20;38.40;;;;;;5035776;28;20442;-67
2022/05/25 06:32:18;;;;;;;1.92;1.75;;;21.20;38.30;;;;;;5034304;28;20057;-62
2022/05/25 06:34:48;;;;;;;3.70;1.80;;;21.20;38.20;;;;;;5034494;28;20034;-66
2022/05/25 06:37:22;;;;;;;2.10;1.83;;;21.30;38.30;;;;;;5034203;28;20025;-64
2022/05/25 06:39:48;;;;;;;1.80;1.70;;;21.30;38.20;;;;;;5034236;28;20026;-64
2022/05/25 06:42:14;;;;;;;1.45;1.35;;;21.30;38.10;;;;;;5035213;28;20032;-65
2022/05/25 06:44:42;;;;;;;1.70;1.60;;;21.30;38.00;;;;;;5035764;28;20025;-65
2022/05/25 06:47:08;;;;;;;1.65;1.50;;;21.30;37.90;;;;;;5035329;28;20563;-64
2022/05/25 06:49:34;;;;;;;1.60;1.50;;;21.30;37.90;;;;;;5033861;28;20053;-66
2022/05/25 06:52:00;;;;;;;1.80;1.70;;;21.30;37.90;;;;;;5033617;28;20037;-63
2022/05/25 06:54:25;;;;;;;1.60;1.50;;;21.30;37.80;;;;;;5035347;28;20042;-64
2022/05/25 06:56:51;;;;;;;1.30;1.20;;;21.30;37.70;;;;;;5034006;28;20025;-66
2022/05/25 06:59:17;;;;;;;1.45;1.35;;;21.30;37.60;;;;;;5035513;28;20479;-65
2022/05/25 07:01:43;;;;;;;5.68;1.40;;;21.40;37.70;;;;;;5035530;28;20033;-64
2022/05/25 07:04:10;;;;;;;1.25;1.15;;;21.40;37.60;;;;;;5033646;28;20538;-64
2022/05/25 07:06:38;;;;;;;1.35;1.25;;;21.40;37.50;;;;;;5034083;28;20044;-66
2022/05/25 07:09:09;;;;;;;1.40;1.30;;;21.40;37.40;;;;;;5033799;28;20364;-65
2022/05/25 07:11:35;;;;;;;1.20;1.10;;;21.40;37.40;;;;;;5034226;28;20033;-68
2022/05/25 07:14:02;;;;;;;1.48;1.38;;;21.40;37.40;;;;;;5033498;28;20099;-69
2022/05/25 07:16:28;;;;;;;1.30;1.20;;;21.50;37.30;;;;;;5033851;28;20091;-65
2022/05/25 07:18:54;;;;;;;1.50;1.40;;;21.50;37.30;;;;;;5035092;28;20033;-64
2022/05/25 07:21:22;;;;;;;1.20;1.20;;;21.50;37.20;;;;;;5034881;28;20037;-65
2022/05/25 07:23:50;;;;;;;1.00;0.90;;;21.50;37.20;;;;;;5034900;28;20037;-65
2022/05/25 07:26:16;;;;;;;1.10;1.10;;;21.60;37.10;;;;;;5033263;28;20085;-66
2022/05/25 07:28:42;;;;;;;1.33;1.23;;;21.60;37.10;;;;;;5034688;28;20025;-66
2022/05/25 07:31:37;;;;;;;1.95;1.20;;;21.60;37.00;;;;;;5033068;28;20142;-63
2022/05/25 07:34:06;;;;;;;1.08;1.05;;;21.60;36.80;;;;;;5034523;28;20045;-64
2022/05/25 07:36:34;;;;;;;2.25;1.20;;;21.60;36.80;;;;;;5033320;28;20025;-64
2022/05/25 07:39:08;;;;;;;1.77;1.17;;;21.70;36.70;;;;;;5034207;28;20030;-62
2022/05/25 07:41:39;;;;;;;1.30;1.20;;;21.70;36.60;;;;;;5034363;28;20082;-63
2022/05/25 07:44:08;;;;;;;1.30;1.20;;;21.70;36.60;;;;;;5034506;28;20075;-63
2022/05/25 07:46:35;;;;;;;1.10;1.05;;;21.80;36.60;;;;;;5034451;28;20021;-65
2022/05/25 07:49:01;;;;;;;1.80;1.40;;;21.80;36.60;;;;;;5033754;28;20456;-66
2022/05/25 07:51:27;;;;;;;1.48;1.35;;;21.80;36.60;;;;;;5034536;28;20021;-65
2022/05/25 07:53:56;;;;;;;2.30;1.52;;;21.80;36.50;;;;;;5033007;28;20083;-66
2022/05/25 07:56:22;;;;;;;1.75;1.50;;;21.90;36.60;;;;;;5034161;28;20032;-65
2022/05/25 07:58:49;;;;;;;2.90;1.40;;;21.90;36.60;;;;;;5033394;28;20095;-65
2022/05/25 08:05:43;;;;;;;1.70;1.60;;;21.90;36.40;;;;;;5034287;28;20104;-66
2022/05/25 08:06:52;;;;;;;;;;;22.00;36.20;;;;;;5034625;28;20036;-65
2022/05/25 08:09:18;;;;;;;1.20;1.10;;;22.00;35.50;;;;;;5034461;28;20259;-65
2022/05/25 08:11:43;;;;;;;1.38;1.27;;;22.10;36.00;;;;;;5033822;28;20021;-65
2022/05/25 08:14:09;;;;;;;1.88;1.42;;;22.10;35.90;;;;;;5032732;28;20033;-65
2022/05/25 08:16:35;;;;;;;1.92;1.42;;;22.20;35.80;;;;;;5032533;28;20057;-65
2022/05/25 08:19:01;;;;;;;1.48;1.35;;;22.20;35.70;;;;;;5033748;28;20106;-65
2022/05/25 08:21:27;;;;;;;1.40;1.30;;;22.30;35.50;;;;;;5033825;28;20044;-65
2022/05/25 08:23:52;;;;;;;1.40;1.30;;;22.30;35.30;;;;;;5033644;28;20437;-65
2022/05/25 08:26:18;;;;;;;1.60;1.50;;;22.40;35.30;;;;;;5033395;28;20553;-65
2022/05/25 08:28:44;;;;;;;2.00;1.50;;;22.40;35.30;;;;;;5032122;28;20068;-65
2022/05/25 08:31:09;;;;;;;1.63;1.13;;;22.50;35.30;;;;;;5032427;28;20029;-64
2022/05/25 08:33:35;;;;;;;4.05;1.52;;;22.50;35.30;;;;;;5033427;28;20029;-65
2022/05/25 08:36:01;;;;;;;1.90;1.30;;;22.50;34.90;;;;;;5033521;28;20033;-65
2022/05/25 08:38:27;;;;;;;1.40;1.25;;;22.50;35.00;;;;;;5033486;28;20116;-66
2022/05/25 08:40:54;;;;;;;1.10;1.10;;;22.60;34.80;;;;;;5033747;28;20025;-65
2022/05/25 08:43:36;;;;;;;1.42;1.33;;;22.60;34.70;;;;;;5033567;28;20025;-65
2022/05/25 08:46:04;;;;;;;2.65;1.17;;;22.60;34.40;;;;;;5032461;28;20057;-66
2022/05/25 08:48:32;;;;;;;1.52;1.30;;;22.70;34.40;;;;;;5032248;28;20549;-65
2022/05/25 08:51:03;;;;;;;1.30;1.20;;;22.70;34.30;;;;;;5033840;28;20034;-65
2022/05/25 08:53:29;;;;;;;2.70;1.10;;;22.70;34.10;;;;;;5032483;28;20172;-66
2022/05/25 08:56:13;;;;;;;2.40;1.33;;;22.80;34.10;;;;;;5032006;28;20120;-65
2022/05/25 08:58:59;;;;;;;;;;;22.80;33.40;;;;;;5033755;28;20025;-66
2022/05/25 09:01:30;;;;;;;1.20;1.10;;;22.80;32.60;;;;;;5032015;28;19911;-65
2022/05/25 09:04:20;;;;;;;1.33;1.23;;;22.90;33.80;;;;;;5032118;28;20039;-66
2022/05/25 09:07:23;;;;;;;2.08;1.30;;;22.90;33.40;;;;;;5033404;28;20025;-65
2022/05/25 09:09:51;;;;;;;1.20;1.10;;;23.00;33.30;;;;;;5032271;28;20387;-65
2022/05/25 09:12:26;;;;;;;1.13;1.10;;;22.90;33.20;;;;;;5031662;28;20026;-66
2022/05/25 09:15:01;;;;;;;1.75;1.10;;;22.90;33.20;;;;;;5031780;28;20026;-64
2022/05/25 09:17:34;;;;;;;1.70;1.13;;;22.90;33.20;;;;;;5031774;28;20036;-65
2022/05/25 09:20:01;;;;;;;1.48;1.20;;;22.90;33.20;;;;;;5033665;28;20026;-65
2022/05/25 09:22:27;;;;;;;2.45;1.20;;;22.90;33.20;;;;;;5032138;28;20033;-65
2022/05/25 09:24:56;;;;;;;1.65;0.88;;;22.90;33.20;;;;;;5033414;28;20026;-65
2022/05/25 09:27:28;;;;;;;1.50;1.05;;;22.80;33.10;;;;;;5032957;28;20447;-64
2022/05/25 09:29:57;;;;;;;1.25;1.10;;;22.80;33.00;;;;;;5033463;28;20041;-65
2022/05/25 09:32:38;;;;;;;1.40;1.10;;;22.80;33.00;;;;;;5032317;28;20021;-64
2022/05/25 09:35:09;;;;;;;1.25;1.15;;;22.80;32.90;;;;;;5033816;28;20022;-65
2022/05/25 09:37:38;;;;;;;1.02;1.00;;;22.90;33.00;;;;;;5035909;28;20518;-65
2022/05/25 09:40:28;;;;;;;1.30;1.20;;;22.90;32.90;;;;;;5036810;28;20095;-65
2022/05/25 09:42:57;;;;;;;1.15;1.05;;;22.90;32.80;;;;;;5038984;28;20052;-65
2022/05/25 09:45:24;;;;;;;2.60;1.20;;;23.00;32.90;;;;;;5037079;28;20105;-66
2022/05/25 09:47:51;;;;;;;1.20;1.10;;;23.00;32.90;;;;;;5036658;28;20041;-65
2022/05/25 09:50:35;;;;;;;1.17;1.10;;;23.00;32.80;;;;;;5036801;28;20376;-65
2022/05/25 09:53:03;;;;;;;;;;;23.00;32.70;;;;;;5037272;28;20539;-65
2022/05/25 09:55:31;;;;;;;1.83;1.00;;;23.00;32.10;;;;;;5036956;28;19905;-67
2022/05/25 09:57:59;;;;;;;1.83;1.13;;;23.10;32.90;;;;;;5035951;28;20031;-66
2022/05/25 10:00:36;;;;;;;1.65;1.30;;;23.10;32.90;;;;;;5036690;28;20445;-66
2022/05/25 10:03:22;;;;;;;4.00;1.33;;;23.10;32.50;;;;;;5036824;28;20417;-66
2022/05/25 10:05:59;;;;;;;3.28;1.13;;;23.10;32.70;;;;;;5035680;28;20057;-65
2022/05/25 10:08:32;;;;;;;1.75;1.30;;;23.10;32.60;;;;;;5035571;28;20048;-66
2022/05/25 10:11:33;;;;;;;1.42;1.33;;;23.10;32.70;;;;;;5036699;28;20427;-65
2022/05/25 10:14:32;;;;;;;1.30;1.20;;;23.20;32.70;;;;;;5036544;28;20044;-65
2022/05/25 10:17:08;;;;;;;1.40;1.30;;;23.20;32.50;;;;;;5036805;28;20395;-65
2022/05/25 10:19:44;;;;;;;2.08;1.30;;;23.20;32.60;;;;;;5036551;28;20029;-66
2022/05/25 10:22:32;;;;;;;1.85;1.20;;;23.30;32.70;;;;;;5034901;28;20030;-66
2022/05/25 10:25:36;;;;;;;1.30;1.25;;;23.30;32.60;;;;;;5036268;28;20025;-64
2022/05/25 10:28:08;;;;;;;1.30;1.15;;;23.40;32.60;;;;;;5034205;28;20538;-64
2022/05/25 10:36:48;;;;;;;1.10;1.10;;;23.50;32.60;;;;;;5036394;28;20040;-65
2022/05/25 10:39:25;;;;;;;1.25;1.15;;;23.50;33.10;;;;;;5034625;28;20502;-65
2022/05/25 10:42:25;;;;;;;1.38;1.27;;;23.60;32.50;;;;;;5036187;28;20029;-65
2022/05/25 10:44:53;;;;;;;1.15;1.00;;;23.70;32.40;;;;;;5035931;28;20026;-66
2022/05/25 10:47:52;;;;;;;2.47;1.20;;;23.70;32.60;;;;;;5033378;28;20383;-66
2022/05/25 10:50:23;;;;;;;2.22;1.40;;;23.70;32.40;;;;;;5042941;28;20045;-66
2022/05/25 10:52:59;;;;;;;1.15;1.05;;;23.70;32.50;;;;;;5035724;28;20040;-65
2022/05/25 10:55:34;;;;;;;1.67;1.10;;;23.80;32.60;;;;;;5034226;28;20124;-66
2022/05/25 10:58:17;;;;;;;2.35;1.30;;;23.80;32.50;;;;;;5035529;28;20167;-66
2022/05/25 11:01:10;;;;;;;1.48;1.10;;;23.90;32.50;;;;;;5035503;28;20030;-66
2022/05/25 11:03:54;;;;;;;2.85;1.08;;;23.90;32.50;;;;;;5035367;28;20079;-66
2022/05/25 11:06:31;;;;;;;1.33;1.23;;;23.90;32.20;;;;;;5035713;28;20033;-66
2022/05/25 11:09:17;;;;;;;1.50;1.40;;;23.90;32.40;;;;;;5035664;28;20035;-65
2022/05/25 11:12:10;;;;;;;1.30;1.20;;;23.90;32.30;;;;;;5035181;28;20490;-65
2022/05/25 11:14:58;;;;;;;1.10;0.93;;;23.90;32.40;;;;;;5035264;28;20108;-65
2022/05/25 11:17:42;;;;;;;1.13;1.02;;;23.90;32.50;;;;;;5035202;28;20163;-65
2022/05/25 11:20:26;;;;;;;1.40;1.30;;;23.90;32.40;;;;;;5035364;28;20372;-66
2022/05/25 11:23:09;;;;;;;2.20;1.20;;;23.90;33.10;;;;;;5035200;28;20029;-65
2022/05/25 11:25:53;;;;;;;1.37;1.27;;;23.90;32.50;;;;;;5034897;28;20030;-65
2022/05/25 11:28:44;;;;;;;2.72;1.10;;;23.90;33.00;;;;;;5033890;28;20033;-65
2022/05/25 11:31:15;;;;;;;1.25;1.10;;;23.90;32.50;;;;;;5035742;28;20452;-64
2022/05/25 11:34:03;;;;;;;1.33;1.23;;;23.90;32.50;;;;;;5035348;28;20029;-65
2022/05/25 11:36:47;;;;;;;1.40;1.10;;;24.00;32.30;;;;;;5033863;28;20397;-65
2022/05/25 11:39:45;;;;;;;1.35;1.25;;;24.10;32.50;;;;;;5034745;28;20413;-64
2022/05/25 11:42:30;;;;;;;1.40;1.30;;;24.20;32.50;;;;;;5037653;28;20132;-65
2022/05/25 11:45:30;;;;;;;1.15;1.10;;;24.20;32.50;;;;;;5035309;28;20357;-65
2022/05/25 11:48:22;;;;;;;1.25;1.10;;;24.30;32.40;;;;;;5041229;28;20049;-67
2022/05/25 11:51:19;;;;;;;1.13;1.10;;;24.40;32.40;;;;;;5034708;28;20353;-65
2022/05/25 11:54:01;;;;;;;1.15;1.10;;;24.40;32.40;;;;;;5035141;28;20389;-65
2022/05/25 11:56:47;;;;;;;1.05;1.00;;;24.50;32.50;;;;;;5035185;28;20030;-66
2022/05/25 11:59:33;;;;;;;1.27;1.10;;;24.50;32.40;;;;;;5032644;28;20032;-65
2022/05/25 12:02:01;;;;;;;1.40;1.30;;;24.50;32.40;;;;;;5034265;28;20032;-66
2022/05/25 12:04:35;;;;;;;2.58;1.17;;;24.60;32.50;;;;;;5034685;28;20183;-66
2022/05/25 12:07:23;;;;;;;3.85;1.25;;;24.50;32.50;;;;;;5034664;28;20521;-66
2022/05/25 12:10:14;;;;;;;1.30;1.20;;;24.60;32.50;;;;;;5033379;28;20033;-66
2022/05/25 12:12:48;;;;;;;1.42;1.33;;;24.60;31.60;;;;;;5034318;28;20034;-66
2022/05/25 12:15:24;;;;;;;1.90;1.00;;;24.70;32.40;;;;;;5034523;28;20104;-66
2022/05/25 12:18:05;;;;;;;1.23;1.13;;;24.70;32.30;;;;;;5034433;28;20029;-65
2022/05/25 12:20:46;;;;;;;1.55;1.20;;;24.70;32.20;;;;;;5034074;28;20472;-65
2022/05/25 12:23:17;;;;;;;1.42;1.30;;;24.70;32.10;;;;;;5034105;28;20495;-65
2022/05/25 12:25:57;;;;;;;1.35;1.23;;;24.80;32.20;;;;;;5033999;28;20104;-65
2022/05/25 12:28:28;;;;;;;1.38;1.27;;;24.90;32.30;;;;;;5032576;28;20025;-65
2022/05/25 12:31:00;;;;;;;2.40;1.10;;;25.00;32.30;;;;;;5032603;28;20534;-65
2022/05/25 12:33:28;;;;;;;1.38;0.90;;;25.10;32.30;;;;;;5033708;28;20426;-65
2022/05/25 12:35:55;;;;;;;1.80;1.30;;;25.10;32.10;;;;;;5033902;28;20040;-66
2022/05/25 12:38:25;;;;;;;1.02;1.00;;;25.20;32.00;;;;;;5033765;28;20029;-66
2022/05/25 12:40:52;;;;;;;1.20;1.10;;;25.30;32.70;;;;;;5032625;28;20029;-66
2022/05/25 12:43:37;;;;;;;2.45;1.10;;;25.50;32.10;;;;;;5033753;28;20037;-64
2022/05/25 12:48:56;;;;;;;1.05;1.05;;;25.70;32.00;;;;;;5034152;28;20041;-65
2022/05/25 12:51:43;;;;;;;1.85;1.10;;;25.80;31.90;;;;;;5034059;28;20037;-65
2022/05/25 12:54:34;;;;;;;1.50;1.40;;;26.00;31.90;;;;;;5032528;28;20103;-65
2022/05/25 12:57:01;;;;;;;1.00;1.00;;;26.20;31.90;;;;;;5033768;28;20021;-65
2022/05/25 12:59:37;;;;;;;1.42;1.33;;;26.30;31.90;;;;;;5032468;28;20428;-65
2022/05/25 13:02:10;;;;;;;1.42;1.33;;;26.40;31.90;;;;;;5033565;28;20376;-65
2022/05/25 13:04:43;;;;;;;0.70;0.70;;;26.50;31.80;;;;;;5032202;28;20025;-65
2022/05/25 13:07:14;;;;;;;1.17;1.08;;;26.60;31.70;;;;;;5032254;28;20494;-65
2022/05/25 13:09:43;;;;;;;1.20;1.10;;;26.80;31.70;;;;;;5031364;28;20022;-66
2022/05/25 13:12:39;;;;;;;1.00;1.00;;;26.80;31.50;;;;;;5033379;28;20021;-66
2022/05/25 13:15:20;;;;;;;1.42;1.30;;;26.90;31.20;;;;;;5033439;28;20418;-65
2022/05/25 13:17:56;;;;;;;1.00;1.00;;;27.00;31.20;;;;;;5033805;28;20025;-65
2022/05/25 13:20:28;;;;;;;1.60;1.42;;;27.10;31.20;;;;;;5033501;28;20033;-65
2022/05/25 13:23:02;;;;;;;1.10;1.00;;;27.20;31.30;;;;;;5033337;28;20025;-65
2022/05/25 13:25:54;;;;;;;1.33;1.10;;;27.20;31.20;;;;;;5033057;28;20124;-66
2022/05/25 13:28:23;;;;;;;1.20;1.10;;;27.30;31.10;;;;;;5032333;28;20479;-66
2022/05/25 13:31:04;;;;;;;0.90;0.90;;;27.30;31.30;;;;;;5033268;28;20490;-66
2022/05/25 13:33:43;;;;;;;1.23;1.13;;;27.40;31.20;;;;;;5032079;28;20059;-67
2022/05/25 13:36:21;;;;;;;1.10;1.00;;;27.40;31.10;;;;;;5033526;28;20025;-66
2022/05/25 13:39:00;;;;;;;1.65;1.50;;;27.40;31.10;;;;;;5032978;28;20428;-67